Time;durP1;ratioP1;P1;durP2;ratioP2;P2;SDS_P1;SDS_P2;PMS_P1;PMS_P2;Temp;Humidity;BMP_temperature;BMP_pressure;BME280_temperature;BME280_humidity;BME280_pressure;Samples;Min_cycle;Max_cycle;Signal;HPM_P1;HPM_P2
2023/01/15 00:01:26;;;;;;;8.15;6.65;;;;;;;6.58;100.00;98702.66;5033637;28;20557;-61
2023/01/15 00:03:53;;;;;;;8.48;6.20;;;;;;;7.01;100.00;98751.13;5034434;28;20163;-61
2023/01/15 00:06:20;;;;;;;7.68;6.15;;;;;;;6.99;100.00;98737.50;5033766;28;20174;-61
2023/01/15 00:08:46;;;;;;;9.98;7.13;;;;;;;6.76;100.00;98724.13;5033986;28;20186;-61
2023/01/15 00:11:12;;;;;;;9.93;7.18;;;;;;;6.83;100.00;98740.91;5051638;28;20182;-61
2023/01/15 00:13:37;;;;;;;10.02;7.40;;;;;;;6.65;100.00;98710.94;5051132;28;20529;-61
2023/01/15 00:16:17;;;;;;;14.65;8.20;;;;;;;6.41;100.00;98663.28;5051105;28;20594;-61
2023/01/15 00:18:47;;;;;;;14.02;8.68;;;;;;;7.02;100.00;98765.66;5051161;28;20181;-62
2023/01/15 00:21:13;;;;;;;10.90;7.35;;;;;;;6.92;100.00;98743.84;5050927;28;20186;-61
2023/01/15 00:29:11;;;;;;;9.30;7.45;;;;;;;6.75;100.00;98759.25;5051326;28;20164;-61
2023/01/15 00:31:36;;;;;;;9.60;7.60;;;;;;;6.45;100.00;98719.59;5050245;28;20557;-61
2023/01/15 00:34:02;;;;;;;11.98;7.88;;;;;;;6.58;100.00;98746.38;5050597;28;20683;-61
2023/01/15 00:36:28;;;;;;;8.07;6.20;;;;;;;6.33;100.00;98704.75;5050689;28;20577;-61
2023/01/15 00:38:53;;;;;;;6.55;5.43;;;;;;;6.23;100.00;98702.69;5050574;28;20279;-61
2023/01/15 00:41:19;;;;;;;5.90;4.70;;;;;;;6.45;100.00;98737.59;5047814;28;20186;-61
2023/01/15 00:43:45;;;;;;;6.72;4.88;;;;;;;6.49;100.00;98727.97;5032877;28;20551;-62
2023/01/15 00:46:11;;;;;;;5.30;4.70;;;;;;;6.63;100.00;98749.56;5032858;28;20224;-61
2023/01/15 00:48:37;;;;;;;5.07;4.53;;;;;;;6.49;100.00;98707.41;5032845;28;20178;-61
2023/01/15 00:51:03;;;;;;;5.65;4.45;;;;;;;6.72;100.00;98738.84;5033114;28;20174;-61
2023/01/15 00:53:29;;;;;;;7.10;4.95;;;;;;;6.36;100.00;98698.63;5032707;28;20534;-61
2023/01/15 00:55:54;;;;;;;5.65;5.15;;;;;;;6.56;100.00;98740.47;5032749;28;20641;-61
2023/01/15 00:58:20;;;;;;;6.43;5.20;;;;;;;6.58;100.00;98741.22;5033485;28;20185;-61
2023/01/15 01:00:45;;;;;;;7.95;6.15;;;;;;;6.61;100.00;98740.25;5032700;28;20170;-61
2023/01/15 01:03:11;;;;;;;5.80;4.50;;;;;;;6.60;100.00;98731.72;5032207;28;20633;-61
2023/01/15 01:05:36;;;;;;;5.97;5.03;;;;;;;6.82;100.00;98749.53;5032285;28;20181;-61
2023/01/15 01:08:02;;;;;;;6.00;5.10;;;;;;;6.82;100.00;98740.06;5032591;28;20311;-61
2023/01/15 01:10:27;;;;;;;6.32;4.90;;;;;;;6.57;100.00;98692.44;5032553;28;20253;-61
2023/01/15 01:12:54;;;;;;;6.32;5.20;;;;;;;6.54;100.00;98698.56;5032176;28;20178;-62
2023/01/15 01:15:21;;;;;;;5.75;4.57;;;;;;;6.63;100.00;98708.44;5033563;28;20182;-61
2023/01/15 01:17:47;;;;;;;5.30;4.80;;;;;;;7.06;100.00;98754.28;5033254;28;20185;-61
2023/01/15 01:20:14;;;;;;;6.75;5.28;;;;;;;6.69;100.00;98692.72;5032698;28;20174;-62
2023/01/15 01:22:39;;;;;;;6.90;5.28;;;;;;;6.83;100.00;98725.47;5032259;28;20201;-62
2023/01/15 01:25:06;;;;;;;6.13;5.53;;;;;;;6.97;100.00;98734.19;5032356;28;20178;-61
2023/01/15 01:27:31;;;;;;;5.63;5.13;;;;;;;7.03;100.00;98754.47;5032357;28;20185;-61
2023/01/15 01:29:56;;;;;;;5.97;5.00;;;;;;;6.60;100.00;98693.16;5032326;28;20542;-62
2023/01/15 01:32:22;;;;;;;6.28;5.68;;;;;;;6.64;100.00;98689.53;5032096;28;20230;-61
2023/01/15 01:34:47;;;;;;;6.78;5.97;;;;;;;6.69;100.00;98692.72;5032361;28;20197;-61
2023/01/15 01:37:13;;;;;;;7.47;6.13;;;;;;;7.04;100.00;98750.16;5032596;28;20566;-61
2023/01/15 01:39:39;;;;;;;7.05;5.22;;;;;;;7.07;100.00;98747.41;5032593;28;20201;-61
2023/01/15 01:42:16;;;;;;;8.70;5.88;;;;;;;6.70;100.00;98699.50;5032160;28;20241;-61
2023/01/15 01:44:44;;;;;;;7.07;6.07;;;;;;;6.92;100.00;98755.88;5034928;28;20640;-61
2023/01/15 01:47:19;;;;;;;6.40;4.80;;;;;;;6.78;100.00;98737.72;5036167;28;20182;-61
2023/01/15 01:49:48;;;;;;;5.40;4.50;;;;;;;6.53;100.00;98696.91;5036689;28;20220;-61
2023/01/15 01:52:38;;;;;;;5.70;4.90;;;;;;;6.88;100.00;98744.91;5036059;28;20179;-62
2023/01/15 01:55:05;;;;;;;5.15;4.50;;;;;;;6.81;100.00;98742.72;5033633;28;20183;-61
2023/01/15 01:57:31;;;;;;;4.97;4.57;;;;;;;6.57;100.00;98703.59;5034577;28;20189;-61
2023/01/15 02:00:00;;;;;;;6.05;4.95;;;;;;;6.63;100.00;98687.84;5034095;28;20214;-61
2023/01/15 02:02:25;;;;;;;6.40;5.03;;;;;;;6.72;100.00;98682.28;5033470;28;20213;-61
2023/01/15 02:04:51;;;;;;;4.90;4.22;;;;;;;7.08;100.00;98729.34;5033529;28;20647;-62
2023/01/15 02:07:17;;;;;;;5.72;4.38;;;;;;;7.25;100.00;98749.09;5033625;28;20182;-61
2023/01/15 02:09:42;;;;;;;4.93;4.43;;;;;;;6.81;100.00;98684.41;5033395;28;20522;-61
2023/01/15 02:12:18;;;;;;;5.10;4.60;;;;;;;7.08;100.00;98743.94;5033553;28;20660;-61
2023/01/15 02:14:46;;;;;;;5.53;4.03;;;;;;;7.09;100.00;98746.44;5033306;28;20722;-61
2023/01/15 02:17:19;;;;;;;4.60;3.95;;;;;;;6.72;100.00;98679.72;5033220;28;20178;-61
2023/01/15 02:19:49;;;;;;;5.07;4.07;;;;;;;7.04;100.00;98742.44;5033974;28;20170;-62
2023/01/15 02:22:42;;;;;;;6.63;3.80;;;;;;;6.95;100.00;98746.28;5033058;28;20198;-61
2023/01/15 02:25:34;;;;;;;3.80;3.50;;;;;;;7.03;100.00;98738.19;5033107;28;20175;-61
2023/01/15 02:28:16;;;;;;;4.50;3.60;;;;;;;7.08;100.00;98729.34;5032968;28;20276;-61
2023/01/15 02:30:47;;;;;;;4.75;3.63;;;;;;;6.73;100.00;98678.81;5033247;28;20182;-61
2023/01/15 02:33:20;;;;;;;3.65;3.35;;;;;;;6.43;100.00;98635.75;5033030;28;20792;-61
2023/01/15 02:35:56;;;;;;;3.08;2.88;;;;;;;6.86;100.00;98740.75;5033224;28;20173;-61
2023/01/15 02:38:24;;;;;;;3.05;2.85;;;;;;;6.50;100.00;98691.09;5033450;28;20197;-61
2023/01/15 02:40:55;;;;;;;3.97;3.35;;;;;;;6.63;100.00;98723.84;5032858;28;20182;-62
2023/01/15 02:43:22;;;;;;;3.47;3.17;;;;;;;6.28;100.00;98675.88;5033132;28;20609;-61
2023/01/15 02:45:52;;;;;;;4.75;3.35;;;;;;;6.59;100.00;98712.03;5033015;28;20204;-61
2023/01/15 02:48:22;;;;;;;3.42;3.10;;;;;;;6.75;100.00;98732.72;5033225;28;20209;-61
2023/01/15 02:50:53;;;;;;;4.32;3.92;;;;;;;6.20;100.00;98629.16;5032697;28;20257;-61
2023/01/15 02:53:23;;;;;;;4.50;4.10;;;;;;;6.94;100.00;98723.22;5032620;28;20641;-61
2023/01/15 02:55:52;;;;;;;7.35;4.97;;;;;;;6.89;100.00;98735.47;5032709;28;20194;-62
2023/01/15 02:58:29;;;;;;;6.00;5.15;;;;;;;6.24;100.00;98632.41;5032667;28;20641;-61
2023/01/15 03:00:57;;;;;;;3.50;3.20;;;;;;;6.80;100.00;98703.31;5035396;28;20597;-61
2023/01/15 03:03:36;;;;;;;5.20;3.50;;;;;;;6.98;100.00;98733.28;5034737;28;20209;-61
2023/01/15 03:06:18;;;;;;;3.55;3.25;;;;;;;6.57;100.00;98675.31;5035052;28;20211;-61
2023/01/15 03:08:44;;;;;;;4.30;3.78;;;;;;;6.97;100.00;98736.75;5035517;28;20228;-61
2023/01/15 03:11:18;;;;;;;3.88;3.15;;;;;;;6.92;100.00;98732.72;5034902;28;20178;-61
2023/01/15 03:14:04;;;;;;;4.65;3.28;;;;;;;6.90;100.00;98737.97;5034534;28;20621;-61
2023/01/15 03:16:39;;;;;;;3.17;2.85;;;;;;;6.87;100.00;98722.66;5034545;28;20170;-61
2023/01/15 03:19:07;;;;;;;2.90;2.70;;;;;;;6.84;100.00;98737.41;5035057;28;20220;-61
2023/01/15 03:21:42;;;;;;;9.75;7.07;;;;;;;6.95;100.00;98736.00;5035154;28;20202;-61
2023/01/15 03:24:10;;;;;;;5.35;4.85;;;;;;;6.70;100.00;98689.22;5034360;28;20173;-61
2023/01/15 03:26:36;;;;;;;5.20;4.50;;;;;;;6.74;100.00;98690.75;5034066;28;20174;-61
2023/01/15 03:29:04;;;;;;;3.25;2.90;;;;;;;6.71;100.00;98674.63;5034336;28;20166;-61
2023/01/15 03:31:30;;;;;;;3.60;3.35;;;;;;;6.77;100.00;98675.16;5034483;28;20186;-62
2023/01/15 03:33:55;;;;;;;3.92;3.63;;;;;;;6.80;100.00;98675.03;5034798;28;20243;-61
2023/01/15 03:36:20;;;;;;;3.28;2.80;;;;;;;6.84;100.00;98684.25;5034116;28;20327;-61
2023/01/15 03:38:49;;;;;;;3.70;3.20;;;;;;;6.70;100.00;98655.00;5033782;28;20262;-62
2023/01/15 03:41:36;;;;;;;2.80;2.60;;;;;;;7.05;100.00;98721.75;5034234;28;20178;-61
2023/01/15 03:44:26;;;;;;;3.67;3.13;;;;;;;7.03;100.00;98717.59;5033954;28;20210;-61
2023/01/15 03:47:16;;;;;;;3.45;2.97;;;;;;;6.93;100.00;98716.41;5034541;28;20171;-61
2023/01/15 03:49:58;;;;;;;3.45;3.25;;;;;;;6.95;100.00;98733.44;5033909;28;20637;-61
2023/01/15 03:52:39;;;;;;;3.60;3.30;;;;;;;7.00;100.00;98723.72;5034218;28;20166;-61
2023/01/15 03:55:07;;;;;;;3.97;3.67;;;;;;;7.01;100.00;98720.28;5034652;28;20158;-62
2023/01/15 03:57:47;;;;;;;3.95;3.65;;;;;;;6.94;100.00;98708.59;5034304;28;20185;-62
2023/01/15 04:00:31;;;;;;;4.90;3.85;;;;;;;6.76;100.00;98703.53;5033709;28;20192;-62
2023/01/15 04:03:00;;;;;;;4.22;3.83;;;;;;;6.53;100.00;98660.94;5033624;28;20194;-62
2023/01/15 04:05:27;;;;;;;6.47;4.53;;;;;;;6.57;100.00;98672.72;5034467;28;20255;-62
2023/01/15 04:07:54;;;;;;;7.97;6.35;;;;;;;6.95;100.00;98738.59;5033242;28;20178;-61
2023/01/15 04:10:19;;;;;;;10.43;8.35;;;;;;;6.72;100.00;98684.88;5033496;28;20202;-60
2023/01/15 04:12:45;;;;;;;6.72;6.13;;;;;;;6.45;100.00;98633.94;5033407;28;20639;-61
2023/01/15 04:15:11;;;;;;;9.75;5.95;;;;;;;6.76;100.00;98672.69;5033376;28;20177;-62
2023/01/15 04:17:36;;;;;;;6.18;5.57;;;;;;;7.15;100.00;98737.56;5033356;28;20178;-62
2023/01/15 04:20:03;;;;;;;5.25;4.72;;;;;;;6.92;100.00;98695.00;5033354;28;20167;-62
2023/01/15 04:22:29;;;;;;;5.63;5.13;;;;;;;7.07;100.00;98724.28;5032857;28;20669;-61
2023/01/15 04:24:55;;;;;;;5.90;5.30;;;;;;;6.86;100.00;98741.59;5033189;28;20174;-60
2023/01/15 04:27:21;;;;;;;4.57;4.18;;;;;;;6.63;100.00;98723.00;5032877;28;20617;-60
2023/01/15 04:29:46;;;;;;;4.20;3.80;;;;;;;6.36;100.00;98684.03;5033093;28;20167;-59
2023/01/15 04:32:12;;;;;;;5.45;3.97;;;;;;;6.36;100.00;98678.88;5033025;28;20205;-60
2023/01/15 04:34:37;;;;;;;6.18;5.43;;;;;;;6.28;100.00;98659.59;5033126;28;20582;-61
2023/01/15 04:37:02;;;;;;;5.18;4.68;;;;;;;6.72;100.00;98723.44;5033101;28;20174;-61
2023/01/15 04:39:28;;;;;;;8.07;5.15;;;;;;;6.66;100.00;98698.00;5032994;28;20174;-60
2023/01/15 04:44:38;;;;;;;5.30;4.78;;;;;;;6.92;100.00;98715.56;5032713;28;20242;-60
2023/01/15 04:47:04;;;;;;;7.18;6.45;;;;;;;7.02;100.00;98727.06;5032628;28;20202;-60
2023/01/15 04:49:29;;;;;;;5.93;5.32;;;;;;;7.06;100.00;98744.00;5032802;28;20170;-60
2023/01/15 04:51:55;;;;;;;6.45;4.47;;;;;;;6.77;100.00;98718.88;5033097;28;20285;-60
2023/01/15 04:54:21;;;;;;;6.60;4.20;;;;;;;6.53;100.00;98660.94;5033284;28;20216;-61
2023/01/15 04:56:50;;;;;;;4.25;3.85;;;;;;;7.17;100.00;98761.50;5033243;28;20196;-60
2023/01/15 04:59:17;;;;;;;5.10;4.60;;;;;;;6.74;100.00;98710.47;5032910;28;20257;-60
2023/01/15 05:01:43;;;;;;;4.93;4.53;;;;;;;6.98;100.00;98743.56;5032323;28;20280;-61
2023/01/15 05:04:08;;;;;;;5.53;5.03;;;;;;;6.77;100.00;98760.00;5032679;28;20162;-60
2023/01/15 05:06:34;;;;;;;6.00;4.80;;;;;;;6.50;100.00;98730.50;5032827;28;20535;-60
2023/01/15 05:09:00;;;;;;;5.55;5.05;;;;;;;6.30;100.00;98715.16;5032546;28;20676;-60
2023/01/15 05:11:26;;;;;;;6.70;4.72;;;;;;;6.45;100.00;98726.44;5032832;28;20167;-60
2023/01/15 05:13:52;;;;;;;5.70;4.97;;;;;;;6.54;100.00;98716.56;5032490;28;20257;-60
2023/01/15 05:16:23;;;;;;;5.55;4.90;;;;;;;6.55;100.00;98714.84;5032516;28;20257;-60
2023/01/15 05:18:50;;;;;;;5.60;5.03;;;;;;;6.77;100.00;98761.78;5032129;28;20236;-61
2023/01/15 05:21:22;;;;;;;6.13;5.47;;;;;;;6.79;100.00;98762.53;5032422;28;20265;-60
2023/01/15 05:23:50;;;;;;;6.60;5.90;;;;;;;6.34;100.00;98724.41;5033013;28;20163;-60
2023/01/15 05:26:16;;;;;;;7.10;5.43;;;;;;;6.64;100.00;98771.78;5032325;28;20264;-60
2023/01/15 05:28:42;;;;;;;8.50;5.50;;;;;;;6.78;100.00;98772.00;5032339;28;20624;-60
2023/01/15 05:31:13;;;;;;;8.50;6.32;;;;;;;6.59;100.00;98748.03;5032276;28;20181;-60
2023/01/15 05:33:39;;;;;;;6.85;5.65;;;;;;;6.66;100.00;98772.56;5031972;28;20190;-61
2023/01/15 05:36:07;;;;;;;7.13;5.78;;;;;;;6.53;100.00;98757.78;5032520;28;20174;-61
2023/01/15 05:38:33;;;;;;;6.43;5.10;;;;;;;6.69;100.00;98769.00;5032203;28;20174;-61
2023/01/15 05:40:58;;;;;;;7.63;5.95;;;;;;;6.73;100.00;98773.09;5032298;28;20694;-61
2023/01/15 05:43:24;;;;;;;10.38;6.22;;;;;;;6.77;100.00;98772.88;5032109;28;20194;-61
2023/01/15 05:45:49;;;;;;;8.52;6.95;;;;;;;6.33;100.00;98712.47;5032695;28;20268;-61
2023/01/15 05:48:15;;;;;;;8.20;6.57;;;;;;;6.17;100.00;98719.19;5049800;28;20582;-62
2023/01/15 05:50:40;;;;;;;9.45;6.82;;;;;;;6.15;100.00;98721.03;5049807;28;20192;-61
2023/01/15 05:53:06;;;;;;;11.20;7.05;;;;;;;6.49;100.00;98776.81;5049739;28;20201;-62
2023/01/15 05:55:32;;;;;;;10.82;6.78;;;;;;;6.56;100.00;98780.75;5050175;28;20331;-61
2023/01/15 05:57:57;;;;;;;8.52;7.18;;;;;;;6.58;100.00;98771.25;5049647;28;20186;-61
2023/01/15 06:00:24;;;;;;;11.93;8.23;;;;;;;6.23;100.00;98726.63;5050131;28;20201;-61
2023/01/15 06:02:50;;;;;;;10.65;8.55;;;;;;;6.56;100.00;98771.31;5050013;28;20352;-61
2023/01/15 06:05:19;;;;;;;11.82;9.57;;;;;;;6.61;100.00;98789.09;5050044;28;20534;-61
2023/01/15 06:07:47;;;;;;;17.70;10.05;;;;;;;6.29;100.00;98725.53;5049503;28;20173;-61
2023/01/15 06:10:15;;;;;;;11.10;8.82;;;;;;;6.63;100.00;98769.28;5049805;28;20541;-61
2023/01/15 06:12:40;;;;;;;11.85;8.43;;;;;;;6.34;100.00;98714.13;5049987;28;20318;-62
2023/01/15 06:15:06;;;;;;;14.10;8.85;;;;;;;6.75;100.00;98776.44;5050008;28;20762;-61
2023/01/15 06:17:31;;;;;;;8.73;7.82;;;;;;;6.75;100.00;98771.31;5049978;28;20657;-61
2023/01/15 06:19:57;;;;;;;9.95;7.88;;;;;;;6.10;100.00;98681.00;5049619;28;20186;-62
2023/01/15 06:22:22;;;;;;;10.77;7.88;;;;;;;6.43;100.00;98725.69;5049358;28;20679;-62
2023/01/15 06:24:47;;;;;;;12.50;7.90;;;;;;;6.78;100.00;98764.28;5046850;28;20329;-61
2023/01/15 06:27:13;;;;;;;8.23;7.38;;;;;;;6.60;100.00;98731.72;5032364;28;20604;-61
2023/01/15 06:29:38;;;;;;;9.35;7.85;;;;;;;6.65;100.00;98737.47;5032709;28;20639;-62
2023/01/15 06:32:04;;;;;;;8.10;7.22;;;;;;;6.59;100.00;98730.03;5035245;28;20202;-61
2023/01/15 06:34:29;;;;;;;9.38;7.75;;;;;;;6.88;100.00;98770.63;5035306;28;20167;-61
2023/01/15 06:36:55;;;;;;;8.30;7.00;;;;;;;6.59;100.00;98719.75;5035325;28;20181;-61
2023/01/15 06:39:20;;;;;;;11.20;7.50;;;;;;;6.72;100.00;98767.13;5035246;28;20236;-61
2023/01/15 06:47:19;;;;;;;11.95;8.85;;;;;;;6.42;100.00;98688.06;5035425;28;20254;-61
2023/01/15 06:49:45;;;;;;;13.38;8.82;;;;;;;7.06;100.00;98784.34;5035057;28;20189;-62
2023/01/15 06:52:10;;;;;;;14.02;11.18;;;;;;;7.01;100.00;98782.00;5034957;28;20180;-62
2023/01/15 06:54:36;;;;;;;12.57;11.27;;;;;;;7.01;100.00;98776.88;5034967;28;20170;-62
2023/01/15 06:57:02;;;;;;;17.85;13.35;;;;;;;7.04;100.00;98781.84;5034883;28;20257;-62
2023/01/15 06:59:28;;;;;;;21.60;13.68;;;;;;;6.68;100.00;98711.63;5034837;28;20538;-62
2023/01/15 07:01:53;;;;;;;23.25;15.25;;;;;;;6.92;100.00;98741.28;5052419;28;20205;-62
2023/01/15 07:04:18;;;;;;;20.25;14.77;;;;;;;6.83;100.00;98721.13;5052597;28;20193;-62
2023/01/15 07:06:44;;;;;;;20.67;14.60;;;;;;;7.13;100.00;98757.41;5052498;28;20612;-62
2023/01/15 07:09:09;;;;;;;25.15;16.50;;;;;;;7.13;100.00;98735.09;5052584;28;20177;-62
2023/01/15 07:11:48;;;;;;;25.27;17.52;;;;;;;7.33;100.00;98763.22;5060301;28;20258;-61
2023/01/15 07:14:14;;;;;;;32.22;20.48;;;;;;;7.53;100.00;98793.13;5072189;28;20212;-62
2023/01/15 07:16:39;;;;;;;32.67;20.83;;;;;;;7.08;100.00;98746.50;5072221;28;20177;-61
2023/01/15 07:19:04;;;;;;;33.10;21.13;;;;;;;7.14;100.00;98735.91;5072052;28;20239;-62
2023/01/15 07:21:30;;;;;;;33.20;21.38;;;;;;;7.51;100.00;98787.25;5072019;28;20221;-60
2023/01/15 07:23:59;;;;;;;36.25;22.13;;;;;;;7.54;100.00;98797.38;5071977;28;20176;-59
2023/01/15 07:26:25;;;;;;;30.10;20.45;;;;;;;7.31;100.00;98746.19;5071931;28;20173;-62
2023/01/15 07:28:51;;;;;;;30.73;20.80;;;;;;;7.51;100.00;98766.66;5072061;28;20220;-59
2023/01/15 07:31:16;;;;;;;26.67;19.42;;;;;;;7.66;100.00;98796.75;5072402;28;20256;-59
2023/01/15 07:33:41;;;;;;;30.83;19.08;;;;;;;7.56;100.00;98765.50;5056429;28;20209;-61
2023/01/15 07:36:07;;;;;;;25.17;17.48;;;;;;;7.20;100.00;98710.72;5054083;28;20181;-60
2023/01/15 07:38:33;;;;;;;28.73;17.17;;;;;;;7.69;100.00;98788.88;5054019;28;20635;-60
2023/01/15 07:51:54;;;;;;;27.17;18.02;;;;;;;7.70;100.00;98811.97;5054133;28;20163;-60
2023/01/15 07:54:20;;;;;;;10.35;7.93;;;;;;;7.33;100.00;98757.25;5053715;28;20265;-61
2023/01/15 07:56:46;;;;;;;9.20;6.65;;;;;;;7.61;100.00;98809.88;5053754;28;20174;-60
2023/01/15 07:59:11;;;;;;;8.20;6.40;;;;;;;7.42;100.00;98797.97;5053703;28;20174;-61
2023/01/15 08:01:37;;;;;;;10.60;7.30;;;;;;;7.32;100.00;98782.16;5054012;28;20169;-60
2023/01/15 08:04:02;;;;;;;13.88;7.53;;;;;;;7.36;100.00;98809.44;5053219;28;20174;-61
2023/01/15 08:06:28;;;;;;;7.80;7.00;;;;;;;7.04;100.00;98745.81;5053764;28;20178;-61
2023/01/15 08:08:53;;;;;;;9.95;7.28;;;;;;;7.29;100.00;98808.03;5053435;28;20173;-60
2023/01/15 08:16:47;;;;;;;9.95;7.47;;;;;;;7.31;100.00;98806.25;5053415;28;20241;-61
2023/01/15 08:19:12;;;;;;;7.35;6.45;;;;;;;7.24;100.00;98781.72;5053230;28;20209;-61
2023/01/15 08:21:37;;;;;;;9.95;7.07;;;;;;;7.44;100.00;98820.16;5053149;28;20315;-60
2023/01/15 08:24:03;;;;;;;6.93;6.18;;;;;;;7.46;100.00;98831.22;5053125;28;20182;-60
2023/01/15 08:26:28;;;;;;;8.43;7.32;;;;;;;7.09;100.00;98774.75;5052498;28;20248;-60
2023/01/15 08:28:54;;;;;;;8.65;6.85;;;;;;;7.44;100.00;98827.88;5052393;28;20177;-61
2023/01/15 08:31:19;;;;;;;10.48;9.40;;;;;;;7.39;100.00;98813.59;5053077;28;20205;-60
2023/01/15 08:33:44;;;;;;;9.45;6.97;;;;;;;6.84;100.00;98722.00;5053069;28;20304;-60
2023/01/15 08:36:10;;;;;;;10.45;6.65;;;;;;;7.29;100.00;98802.06;5052954;28;20178;-60
2023/01/15 08:38:35;;;;;;;10.10;6.85;;;;;;;7.22;100.00;98796.38;5052884;28;20235;-60
2023/01/15 08:41:02;;;;;;;15.23;12.60;;;;;;;7.40;100.00;98812.69;5053215;28;20174;-60
2023/01/15 08:43:31;;;;;;;11.80;8.98;;;;;;;7.45;100.00;98831.31;5052709;28;20198;-60
2023/01/15 08:45:58;;;;;;;9.05;6.40;;;;;;;7.55;100.00;98815.31;5052796;28;20173;-60
2023/01/15 08:48:25;;;;;;;9.88;7.50;;;;;;;7.62;100.00;98820.97;5052735;28;20185;-60
2023/01/15 08:50:50;;;;;;;7.72;6.93;;;;;;;7.33;100.00;98759.81;5052764;28;20538;-61
2023/01/15 08:53:18;;;;;;;6.93;6.20;;;;;;;7.25;100.00;98764.53;5052518;28;20212;-60
2023/01/15 08:55:44;;;;;;;10.30;8.93;;;;;;;6.88;100.00;98719.19;5052907;28;20228;-60
2023/01/15 08:58:09;;;;;;;10.10;6.82;;;;;;;7.44;100.00;98817.59;5052593;28;20178;-60
2023/01/15 09:00:35;;;;;;;20.38;15.35;;;;;;;6.79;100.00;98719.66;5052138;28;20601;-60
2023/01/15 09:03:00;;;;;;;10.48;9.38;;;;;;;7.40;100.00;98805.78;5052497;28;20193;-60
2023/01/15 09:05:27;;;;;;;13.75;11.85;;;;;;;7.41;100.00;98792.00;5052594;28;20170;-60
2023/01/15 09:07:52;;;;;;;15.48;12.13;;;;;;;7.16;100.00;98755.50;5052168;28;20596;-60
2023/01/15 09:10:18;;;;;;;22.33;18.13;;;;;;;7.51;100.00;98792.38;5052512;28;20261;-60
2023/01/15 09:12:43;;;;;;;19.67;14.25;;;;;;;7.47;100.00;98790.88;5052947;28;20181;-60
2023/01/15 09:15:09;;;;;;;22.35;14.48;;;;;;;7.42;100.00;98787.69;5052648;28;20230;-60
2023/01/15 09:17:39;;;;;;;27.92;17.30;;;;;;;7.22;100.00;98744.09;5052304;28;20268;-60
2023/01/15 09:20:06;;;;;;;45.53;29.20;;;;;;;7.07;100.00;98730.25;5053107;28;20205;-60
2023/01/15 09:22:31;;;;;;;25.75;17.27;;;;;;;7.18;100.00;98725.38;5052183;28;20243;-60
2023/01/15 09:24:57;;;;;;;18.20;13.18;;;;;;;7.26;100.00;98725.84;5052812;28;20586;-60
2023/01/15 09:27:22;;;;;;;20.33;13.20;;;;;;;7.56;100.00;98780.09;5052259;28;20177;-61
2023/01/15 09:29:48;;;;;;;22.30;14.65;;;;;;;7.38;100.00;98743.25;5052284;28;20185;-61
2023/01/15 09:32:13;;;;;;;23.02;16.35;;;;;;;7.26;100.00;98719.84;5052111;28;20234;-61
2023/01/15 09:34:38;;;;;;;16.98;10.50;;;;;;;7.35;100.00;98730.53;5052317;28;20158;-61
2023/01/15 09:37:04;;;;;;;17.08;12.18;;;;;;;7.53;100.00;98750.22;5052179;28;20611;-61
2023/01/15 09:39:29;;;;;;;10.85;8.18;;;;;;;7.41;100.00;98704.47;5052468;28;20174;-61
2023/01/15 09:42:16;;;;;;;11.98;8.50;;;;;;;7.90;100.00;98768.00;5052318;28;20736;-61
2023/01/15 09:45:09;;;;;;;13.70;10.57;;;;;;;7.89;100.00;98779.22;5052114;28;20157;-61
2023/01/15 09:47:42;;;;;;;14.40;12.30;;;;;;;7.83;100.00;98761.50;5052106;28;20193;-61
2023/01/15 09:50:22;;;;;;;11.38;8.60;;;;;;;7.91;100.00;98767.06;5052462;28;20169;-61
2023/01/15 09:53:16;;;;;;;10.38;8.38;;;;;;;7.74;100.00;98764.53;5052560;28;20185;-62
2023/01/15 09:55:45;;;;;;;14.30;9.35;;;;;;;7.72;100.00;98755.22;5052647;28;20173;-61
2023/01/15 09:58:13;;;;;;;14.68;10.55;;;;;;;7.71;100.00;98728.66;5051912;28;20268;-62
2023/01/15 10:00:44;;;;;;;20.52;12.70;;;;;;;7.78;100.00;98745.44;5051617;28;20670;-61
2023/01/15 10:03:09;;;;;;;25.73;14.93;;;;;;;7.84;100.00;98760.59;5050870;28;20225;-61
2023/01/15 10:05:55;;;;;;;70.75;33.97;;;;;;;7.99;100.00;98759.78;5053844;28;20198;-61
2023/01/15 10:08:24;;;;;;;62.58;29.20;;;;;;;7.65;100.00;98713.53;5056340;28;20177;-61
2023/01/15 10:10:58;;;;;;;137.80;51.75;;;;;;;7.74;100.00;98717.38;5053852;28;20666;-62
2023/01/15 10:13:51;;;;;;;211.05;76.47;;;;;;;7.86;100.00;98727.84;5054880;28;20166;-61
2023/01/15 10:16:25;;;;;;;106.10;43.13;;;;;;;7.59;100.00;98682.94;5093523;28;20183;-61
2023/01/15 10:18:52;;;;;;;21.63;11.30;;;;;;;8.02;100.00;98722.72;5093420;28;20242;-62
2023/01/15 10:21:29;;;;;;;15.65;8.82;;;;;;;8.06;100.00;98725.06;5093619;28;20187;-62
2023/01/15 10:24:20;;;;;;;27.92;15.45;;;;;;;7.98;100.00;98727.19;5093437;28;20180;-62
2023/01/15 10:26:46;;;;;;;61.67;27.48;;;;;;;7.92;100.00;98718.97;5091574;28;20218;-61
2023/01/15 10:29:26;;;;;;;111.80;41.63;;;;;;;7.91;100.00;98719.88;5093549;28;20538;-62
2023/01/15 10:32:00;;;;;;;208.68;58.45;;;;;;;7.72;100.00;98696.84;5093369;28;20191;-62
2023/01/15 10:34:43;;;;;;;264.88;79.60;;;;;;;7.76;100.00;98708.63;5094031;28;20283;-61
2023/01/15 10:37:17;;;;;;;148.68;42.28;;;;;;;7.33;100.00;98644.00;5093612;28;20191;-61
2023/01/15 10:39:58;;;;;;;450.58;139.63;;;;;;;7.87;100.00;98701.16;5093124;28;20188;-62
2023/01/15 10:42:41;;;;;;;163.57;47.03;;;;;;;7.91;100.00;98696.69;5093437;28;20212;-61
2023/01/15 10:45:24;;;;;;;86.80;29.85;;;;;;;7.83;100.00;98697.09;5093535;28;20631;-62
2023/01/15 10:48:03;;;;;;;92.07;29.70;;;;;;;7.78;100.00;98683.63;5065591;28;20724;-62
2023/01/15 10:50:28;;;;;;;28.73;12.65;;;;;;;7.88;100.00;98682.25;5055108;28;20507;-61
2023/01/15 10:53:25;;;;;;;29.38;13.95;;;;;;;7.95;100.00;98685.31;5054748;28;20204;-62
2023/01/15 10:55:54;;;;;;;122.95;44.75;;;;;;;7.92;100.00;98659.72;5055416;28;20624;-62
2023/01/15 10:58:41;;;;;;;31.08;14.40;;;;;;;7.84;100.00;98642.09;5054820;28;20552;-60
2023/01/15 11:01:15;;;;;;;38.72;15.93;;;;;;;7.77;100.00;98599.56;5055644;28;20189;-62
2023/01/15 11:03:42;;;;;;;12.23;8.60;;;;;;;8.09;100.00;98663.03;5054662;28;20196;-60
2023/01/15 11:06:17;;;;;;;209.50;70.15;;;;;;;8.07;100.00;98658.88;5054379;28;20178;-60
2023/01/15 11:08:48;;;;;;;67.53;26.25;;;;;;;7.67;100.00;98608.69;5052333;28;20197;-61
2023/01/15 11:20:19;;;;;;;16.25;10.02;;;;;;;8.22;100.00;98638.28;5012953;28;20253;-61
2023/01/15 11:22:45;;;;;;;46.28;22.40;;;;;;;7.85;100.00;98565.63;5012235;28;20303;-61
2023/01/15 11:25:10;;;;;;;24.00;13.43;;;;;;;7.98;100.00;98587.25;5012645;28;20268;-60
2023/01/15 11:27:36;;;;;;;21.60;12.80;;;;;;;8.23;100.00;98636.53;5012290;28;20219;-60
2023/01/15 11:30:05;;;;;;;19.95;11.45;;;;;;;8.20;100.00;98637.53;5012365;28;20237;-60
2023/01/15 11:32:36;;;;;;;10.52;7.57;;;;;;;7.98;100.00;98570.03;5011936;28;20214;-61
2023/01/15 11:35:02;;;;;;;19.98;11.30;;;;;;;8.30;100.00;98628.38;5012221;28;20195;-60
2023/01/15 11:37:28;;;;;;;18.85;10.63;;;;;;;8.20;100.00;98628.97;5012064;28;20297;-60
2023/01/15 11:40:04;;;;;;;18.10;10.98;;;;;;;7.95;100.00;98583.09;5012479;28;20190;-60
2023/01/15 11:51:02;;;;;;;13.95;9.55;;;;;;;8.23;100.00;98615.91;5025853;28;20238;-61
2023/01/15 11:53:32;;;;;;;16.27;10.00;;;;;;;8.26;100.00;98608.84;5054235;28;20178;-60
2023/01/15 11:56:00;;;;;;;17.05;11.98;;;;;;;8.18;100.00;98582.66;5054868;28;20505;-61
2023/01/15 11:58:30;;;;;;;23.42;14.95;;;;;;;8.14;100.00;98593.19;5053989;28;20177;-61
2023/01/15 12:00:57;;;;;;;20.63;12.15;;;;;;;8.13;100.00;98569.19;5053712;28;20168;-61
2023/01/15 12:03:26;;;;;;;23.88;14.40;;;;;;;8.13;100.00;98555.47;5053529;28;20223;-61
2023/01/15 12:05:55;;;;;;;20.92;15.10;;;;;;;8.51;100.00;98609.09;5053497;28;20170;-61
2023/01/15 12:08:45;;;;;;;26.20;14.25;;;;;;;8.59;100.00;98599.22;5053739;28;20174;-61
2023/01/15 12:11:17;;;;;;;35.10;18.80;;;;;;;8.72;100.00;98597.56;5053122;28;20547;-61
2023/01/15 12:14:13;;;;;;;26.33;15.07;;;;;;;8.81;100.00;98593.63;5053678;28;20596;-61
2023/01/15 12:16:55;;;;;;;21.90;11.98;;;;;;;8.79;100.00;98593.72;5053392;28;20166;-61
2023/01/15 12:20:05;;;;;;;16.40;12.35;;;;;;;8.86;100.00;98596.78;5053829;28;20224;-61
2023/01/15 12:22:44;;;;;;;14.00;9.98;;;;;;;8.32;100.00;98526.00;5051396;28;20214;-61
2023/01/15 12:25:36;;;;;;;17.92;12.25;;;;;;;8.58;100.00;98589.81;5051715;28;20186;-61